Time;durP1;ratioP1;P1;durP2;ratioP2;P2;SDS_P1;SDS_P2;PMS_P1;PMS_P2;Temp;Humidity;BMP_temperature;BMP_pressure;BME280_temperature;BME280_humidity;BME280_pressure;Samples;Min_cycle;Max_cycle;Signal;HPM_P1;HPM_P2
2023/04/26 05:51:59;;;;;;;8.95;4.70;;;;;;;;;;10504395;28;20411;-80
2023/04/26 05:57:00;;;;;;;7.75;4.50;;;;;;;;;;10502654;28;20029;-78
2023/04/26 06:02:29;;;;;;;8.10;4.57;;;;;;;;;;10524589;22;20025;-85
2023/04/26 06:07:30;;;;;;;7.07;4.60;;;;;;;;;;10385505;28;20128;-85
2023/04/26 06:12:32;;;;;;;10.07;4.88;;;;;;;;;;10393917;28;20052;-86
2023/04/26 06:17:34;;;;;;;13.23;5.93;;;;;;;;;;10411748;28;20105;-85
2023/04/26 06:22:36;;;;;;;12.70;6.18;;;;;;;;;;10385557;28;20037;-85
2023/04/26 06:27:40;;;;;;;12.77;7.53;;;;;;;;;;10360462;28;20041;-86
2023/04/26 06:32:49;;;;;;;16.73;10.52;;;;;;;;;;10369483;28;20031;-86
2023/04/26 06:37:53;;;;;;;14.77;8.45;;;;;;;;;;10361351;28;20194;-85
2023/04/26 06:43:00;;;;;;;15.00;7.65;;;;;;;;;;10362715;28;20026;-86
2023/04/26 06:48:04;;;;;;;15.55;8.65;;;;;;;;;;10367578;28;20518;-87
2023/04/26 06:53:05;;;;;;;11.75;5.95;;;;;;;;;;10361878;28;20118;-86
2023/04/26 06:58:07;;;;;;;8.60;5.82;;;;;;;;;;10355890;28;20030;-86
2023/04/26 07:03:08;;;;;;;11.38;6.15;;;;;;;;;;10346814;28;20034;-86
2023/04/26 07:08:09;;;;;;;10.95;5.40;;;;;;;;;;10345104;28;20533;-86
2023/04/26 07:13:10;;;;;;;8.88;5.00;;;;;;;;;;10337021;28;20038;-84
2023/04/26 07:18:11;;;;;;;8.02;4.35;;;;;;;;;;10354457;28;20029;-84
2023/04/26 07:23:12;;;;;;;8.05;4.07;;;;;;;;;;10338140;28;20440;-83
2023/04/26 07:28:13;;;;;;;9.02;4.13;;;;;;;;;;10344260;28;20116;-84
2023/04/26 07:33:15;;;;;;;8.77;4.30;;;;;;;;;;10358209;28;20037;-83
2023/04/26 07:38:18;;;;;;;9.60;4.70;;;;;;;;;;10353768;28;20026;-84
2023/04/26 07:43:20;;;;;;;8.93;5.90;;;;;;;;;;10353779;28;20024;-83
2023/04/26 07:48:21;;;;;;;13.00;7.32;;;;;;;;;;10336783;28;20097;-83
2023/04/26 07:53:22;;;;;;;18.13;5.53;;;;;;;;;;10336877;28;20508;-84
2023/04/26 07:58:24;;;;;;;11.38;4.55;;;;;;;;;;10346781;28;20479;-82
2023/04/26 08:03:28;;;;;;;12.88;7.50;;;;;;;;;;10356476;28;20038;-84
2023/04/26 08:08:31;;;;;;;8.35;4.00;;;;;;;;;;10344982;28;20497;-85
2023/04/26 08:13:45;;;;;;;9.25;3.60;;;;;;;;;;10354917;28;20030;-84
2023/04/26 08:18:46;;;;;;;8.30;3.50;;;;;;;;;;10340024;28;20097;-85
2023/04/26 08:23:47;;;;;;;8.52;3.50;;;;;;;;;;10341490;28;20034;-85
2023/04/26 08:28:48;;;;;;;8.10;4.72;;;;;;;;;;10340887;28;20125;-84
2023/04/26 08:33:54;;;;;;;7.20;4.00;;;;;;;;;;10357868;28;20095;-84
2023/04/26 08:38:56;;;;;;;8.07;3.47;;;;;;;;;;10342641;28;20060;-83
2023/04/26 08:43:58;;;;;;;8.30;3.33;;;;;;;;;;10346349;28;20113;-84
2023/04/26 08:49:19;;;;;;;7.35;2.35;;;;;;;;;;10340011;28;20089;-84
2023/04/26 08:54:21;;;;;;;10.23;2.97;;;;;;;;;;10328849;28;20034;-83
2023/04/26 08:59:22;;;;;;;9.35;2.30;;;;;;;;;;10342900;28;20121;-85
2023/04/26 09:04:24;;;;;;;7.65;2.25;;;;;;;;;;10347448;28;20062;-83
2023/04/26 09:09:26;;;;;;;7.03;2.38;;;;;;;;;;10345379;28;20122;-83
2023/04/26 09:14:27;;;;;;;6.43;2.63;;;;;;;;;;10339452;28;20030;-85
2023/04/26 09:19:38;;;;;;;4.07;1.98;;;;;;;;;;10335849;28;20050;-84
2023/04/26 09:24:51;;;;;;;3.67;2.10;;;;;;;;;;10333672;28;20032;-84
2023/04/26 09:29:58;;;;;;;5.47;2.10;;;;;;;;;;10333177;28;20029;-84
2023/04/26 09:34:59;;;;;;;4.43;1.83;;;;;;;;;;10338500;28;20023;-85
2023/04/26 09:40:00;;;;;;;4.28;2.38;;;;;;;;;;10333762;28;20073;-84
2023/04/26 09:45:08;;;;;;;4.05;2.00;;;;;;;;;;10351769;28;20106;-84
2023/04/26 09:50:09;;;;;;;5.53;1.90;;;;;;;;;;10334592;28;20026;-82
2023/04/26 09:55:10;;;;;;;4.88;1.73;;;;;;;;;;10337342;28;20027;-85
2023/04/26 10:00:13;;;;;;;3.55;1.98;;;;;;;;;;10359125;28;20149;-86
2023/04/26 10:05:14;;;;;;;2.10;1.30;;;;;;;;;;10347303;28;20042;-86
2023/04/26 10:10:16;;;;;;;4.68;2.17;;;;;;;;;;10350897;28;20145;-85
2023/04/26 10:15:18;;;;;;;5.38;1.98;;;;;;;;;;10350535;28;20057;-84
2023/04/26 10:20:20;;;;;;;3.38;1.45;;;;;;;;;;10346880;28;20037;-86
2023/04/26 10:25:21;;;;;;;6.03;1.70;;;;;;;;;;10346484;28;20019;-86
2023/04/26 10:30:22;;;;;;;4.07;1.67;;;;;;;;;;10371118;28;20022;-84
2023/04/26 10:35:26;;;;;;;4.03;1.95;;;;;;;;;;10369510;28;20037;-84
2023/04/26 10:40:28;;;;;;;3.47;1.98;;;;;;;;;;10341797;28;20026;-84
2023/04/26 10:45:29;;;;;;;3.85;1.77;;;;;;;;;;10341717;28;20472;-84
2023/04/26 10:50:30;;;;;;;5.40;2.13;;;;;;;;;;10344803;28;20169;-85
2023/04/26 10:55:39;;;;;;;4.35;2.00;;;;;;;;;;10351615;28;20029;-85
2023/04/26 11:00:40;;;;;;;4.40;2.30;;;;;;;;;;10354483;28;20027;-86
2023/04/26 11:05:47;;;;;;;3.42;1.80;;;;;;;;;;10346919;28;20073;-85
2023/04/26 11:11:04;;;;;;;3.17;1.90;;;;;;;;;;10342326;28;20038;-85
2023/04/26 11:16:09;;;;;;;4.57;1.90;;;;;;;;;;10340555;28;20460;-85
2023/04/26 11:21:11;;;;;;;10.68;7.45;;;;;;;;;;10357888;28;20499;-85
2023/04/26 11:26:12;;;;;;;4.88;2.13;;;;;;;;;;10336720;28;20025;-86
2023/04/26 11:31:13;;;;;;;3.92;2.10;;;;;;;;;;10337188;28;20374;-84
2023/04/26 11:36:15;;;;;;;3.38;1.85;;;;;;;;;;10338294;28;20053;-84
2023/04/26 11:41:16;;;;;;;3.50;1.70;;;;;;;;;;10337686;28;20050;-85
2023/04/26 11:46:20;;;;;;;4.15;1.73;;;;;;;;;;10355379;28;20029;-85
2023/04/26 11:51:21;;;;;;;10.68;5.38;;;;;;;;;;10356273;28;20014;-84
2023/04/26 11:56:22;;;;;;;3.15;1.77;;;;;;;;;;10354204;28;20026;-85
2023/04/26 12:01:24;;;;;;;4.63;2.00;;;;;;;;;;10351898;28;20158;-85
2023/04/26 12:06:45;;;;;;;3.25;1.70;;;;;;;;;;10400258;23;20042;-82
2023/04/26 12:11:59;;;;;;;3.53;1.67;;;;;;;;;;10404159;28;20149;-82
2023/04/26 12:17:01;;;;;;;4.93;1.67;;;;;;;;;;10390222;28;20030;-81
2023/04/26 12:22:03;;;;;;;4.45;2.90;;;;;;;;;;10390383;28;20413;-81
2023/04/26 12:27:05;;;;;;;4.80;1.92;;;;;;;;;;10390603;28;20141;-82
2023/04/26 12:32:06;;;;;;;2.72;1.50;;;;;;;;;;10394232;28;20026;-82
2023/04/26 12:37:07;;;;;;;3.50;1.40;;;;;;;;;;10391300;28;20072;-84
2023/04/26 12:42:08;;;;;;;3.35;1.60;;;;;;;;;;10389774;28;20127;-82
2023/04/26 12:47:09;;;;;;;3.90;1.73;;;;;;;;;;10388875;28;20166;-83
2023/04/26 12:52:10;;;;;;;3.22;1.58;;;;;;;;;;10387557;28;20029;-82
2023/04/26 12:57:13;;;;;;;2.25;1.25;;;;;;;;;;10387185;28;20032;-83
2023/04/26 13:02:14;;;;;;;4.43;1.52;;;;;;;;;;10389255;28;20033;-85
2023/04/26 13:07:16;;;;;;;3.55;1.95;;;;;;;;;;10392177;28;20554;-85
2023/04/26 13:12:17;;;;;;;3.35;1.90;;;;;;;;;;10391212;28;20022;-85
2023/04/26 13:17:18;;;;;;;4.80;1.90;;;;;;;;;;10390636;28;20034;-83
2023/04/26 13:22:19;;;;;;;2.78;1.55;;;;;;;;;;10399853;28;20025;-84
2023/04/26 13:27:20;;;;;;;3.20;1.48;;;;;;;;;;10407793;28;20025;-85
2023/04/26 13:32:21;;;;;;;4.63;1.80;;;;;;;;;;10393299;28;20116;-85
2023/04/26 13:37:23;;;;;;;4.43;1.50;;;;;;;;;;10389436;28;20022;-84
2023/04/26 13:42:24;;;;;;;4.05;1.70;;;;;;;;;;10389317;28;20032;-83
2023/04/26 13:47:25;;;;;;;4.45;1.70;;;;;;;;;;10388839;28;20045;-84
2023/04/26 13:52:26;;;;;;;2.50;1.55;;;;;;;;;;10388421;28;20400;-85
2023/04/26 13:57:27;;;;;;;3.38;1.67;;;;;;;;;;10388854;28;20388;-85
2023/04/26 14:02:28;;;;;;;9.45;1.80;;;;;;;;;;10389529;28;20026;-85
2023/04/26 14:07:30;;;;;;;4.90;1.70;;;;;;;;;;10388230;28;20065;-85
2023/04/26 14:12:31;;;;;;;5.60;2.22;;;;;;;;;;10394759;28;20041;-83
2023/04/26 14:17:32;;;;;;;7.97;2.28;;;;;;;;;;10399797;28;20057;-84
2023/04/26 14:22:33;;;;;;;5.30;2.22;;;;;;;;;;10400180;28;20494;-85
2023/04/26 14:27:34;;;;;;;4.20;2.00;;;;;;;;;;10396503;28;20026;-84
2023/04/26 14:32:35;;;;;;;3.63;1.80;;;;;;;;;;10396905;28;20506;-84
2023/04/26 14:37:37;;;;;;;3.15;1.60;;;;;;;;;;10398712;28;20098;-85
2023/04/26 14:42:44;;;;;;;4.13;1.88;;;;;;;;;;10410459;28;20464;-84
2023/04/26 14:47:45;;;;;;;3.35;1.83;;;;;;;;;;10404785;28;20361;-85
2023/04/26 14:52:46;;;;;;;2.65;1.70;;;;;;;;;;10393460;28;20476;-83
2023/04/26 14:57:47;;;;;;;5.80;2.25;;;;;;;;;;10393533;28;20065;-81
2023/04/26 15:02:48;;;;;;;3.35;1.85;;;;;;;;;;10395469;28;20396;-82
2023/04/26 15:07:50;;;;;;;5.07;1.88;;;;;;;;;;10393740;28;20440;-83
2023/04/26 15:12:51;;;;;;;3.75;1.73;;;;;;;;;;10392575;28;20030;-83
2023/04/26 15:17:52;;;;;;;2.95;1.80;;;;;;;;;;10390756;28;20369;-81
2023/04/26 15:22:53;;;;;;;4.90;2.35;;;;;;;;;;10392174;28;20088;-82
2023/04/26 15:27:56;;;;;;;3.97;1.90;;;;;;;;;;10391589;28;20120;-82
2023/04/26 15:32:57;;;;;;;2.55;1.48;;;;;;;;;;10391122;28;20026;-82
2023/04/26 15:37:58;;;;;;;3.92;2.20;;;;;;;;;;10392957;28;20053;-81
2023/04/26 15:42:59;;;;;;;2.83;1.95;;;;;;;;;;10390183;28;20076;-81
2023/04/26 15:48:00;;;;;;;4.25;2.28;;;;;;;;;;10389197;28;20052;-82
2023/04/26 15:53:01;;;;;;;3.08;1.70;;;;;;;;;;10394388;28;20041;-81
2023/04/26 15:58:03;;;;;;;2.55;1.83;;;;;;;;;;10421004;28;20080;-80
2023/04/26 16:03:04;;;;;;;4.43;2.05;;;;;;;;;;10422955;28;20081;-79
2023/04/26 16:08:05;;;;;;;3.20;1.58;;;;;;;;;;10420754;28;20038;-80
2023/04/26 16:13:06;;;;;;;2.65;1.60;;;;;;;;;;10412790;28;20030;-80
2023/04/26 16:18:08;;;;;;;3.05;1.88;;;;;;;;;;10396490;28;20117;-84
2023/04/26 16:23:09;;;;;;;4.07;2.10;;;;;;;;;;10402538;28;20094;-82
2023/04/26 16:28:11;;;;;;;6.13;3.53;;;;;;;;;;10394026;28;20022;-85
2023/04/26 16:33:12;;;;;;;4.95;2.80;;;;;;;;;;10382185;28;20116;-79
2023/04/26 16:38:13;;;;;;;4.00;2.25;;;;;;;;;;10378863;28;20030;-80
2023/04/26 16:43:14;;;;;;;6.03;2.30;;;;;;;;;;10380347;28;20033;-79
2023/04/26 16:48:15;;;;;;;5.72;3.05;;;;;;;;;;10378765;28;20058;-79
2023/04/26 16:53:16;;;;;;;3.97;2.35;;;;;;;;;;10381508;28;20468;-79
2023/04/26 16:58:18;;;;;;;3.05;1.95;;;;;;;;;;10381016;28;20045;-79
2023/04/26 17:03:19;;;;;;;2.78;1.30;;;;;;;;;;10380611;28;20068;-78
2023/04/26 17:08:20;;;;;;;3.10;2.10;;;;;;;;;;10381285;28;20036;-79
2023/04/26 17:13:21;;;;;;;2.95;1.60;;;;;;;;;;10383750;28;20026;-79
2023/04/26 17:18:22;;;;;;;5.63;2.50;;;;;;;;;;10391608;28;20034;-77
2023/04/26 17:23:23;;;;;;;3.90;2.38;;;;;;;;;;10396814;28;20033;-78
2023/04/26 17:28:25;;;;;;;3.22;1.83;;;;;;;;;;10386900;28;20026;-78
2023/04/26 17:33:26;;;;;;;2.95;1.70;;;;;;;;;;10394979;28;20116;-79
2023/04/26 17:38:27;;;;;;;4.22;2.47;;;;;;;;;;10389722;28;20460;-80
2023/04/26 17:43:28;;;;;;;5.72;2.97;;;;;;;;;;10379249;28;20093;-80
2023/04/26 17:48:29;;;;;;;4.53;2.30;;;;;;;;;;10379734;28;20128;-80
2023/04/26 17:53:30;;;;;;;1.95;1.20;;;;;;;;;;10378080;28;20030;-80
2023/04/26 17:58:31;;;;;;;2.58;1.50;;;;;;;;;;10376858;28;20221;-80
2023/04/26 18:03:34;;;;;;;7.55;3.42;;;;;;;;;;10379964;28;20069;-82
2023/04/26 18:08:36;;;;;;;5.47;2.88;;;;;;;;;;10383282;28;20124;-81
2023/04/26 18:13:37;;;;;;;2.65;1.60;;;;;;;;;;10383016;28;20022;-81
2023/04/26 18:18:38;;;;;;;2.90;2.03;;;;;;;;;;10385388;28;20026;-82
2023/04/26 18:23:40;;;;;;;2.78;1.35;;;;;;;;;;10386230;28;20033;-82
2023/04/26 18:28:43;;;;;;;2.70;1.85;;;;;;;;;;10385928;28;20080;-82
2023/04/26 18:33:46;;;;;;;3.58;2.33;;;;;;;;;;10404244;28;20025;-81
2023/04/26 18:38:47;;;;;;;3.53;2.20;;;;;;;;;;10385985;28;20021;-82
2023/04/26 18:43:49;;;;;;;2.22;1.58;;;;;;;;;;10382339;28;20054;-82
2023/04/26 18:48:50;;;;;;;2.80;1.30;;;;;;;;;;10383712;28;20256;-82
2023/04/26 18:53:52;;;;;;;3.90;2.00;;;;;;;;;;10388355;28;20033;-83
2023/04/26 18:58:53;;;;;;;4.53;2.70;;;;;;;;;;10391423;28;20061;-81
2023/04/26 19:03:54;;;;;;;2.63;1.70;;;;;;;;;;10389041;28;20065;-81
2023/04/26 19:08:55;;;;;;;2.85;1.90;;;;;;;;;;10388934;28;20494;-82
2023/04/26 19:13:56;;;;;;;2.75;1.75;;;;;;;;;;10388351;28;20018;-81
